Time;durP1;ratioP1;P1;durP2;ratioP2;P2;SDS_P1;SDS_P2;PMS_P1;PMS_P2;Temp;Humidity;BMP_temperature;BMP_pressure;BME280_temperature;BME280_humidity;BME280_pressure;Samples;Min_cycle;Max_cycle;Signal;HPM_P1;HPM_P2
2021/08/19 00:00:48;;;;;;;1.23;1.13;;;22.90;57.40;;;;;;4993274;28;20488;-49
2021/08/19 00:03:14;;;;;;;1.37;1.13;;;22.90;57.20;;;;;;4992781;28;20202;-47
2021/08/19 00:05:39;;;;;;;1.20;1.10;;;22.90;57.50;;;;;;4993313;28;20462;-46
2021/08/19 00:08:05;;;;;;;0.90;0.90;;;22.80;57.60;;;;;;4992487;28;20237;-47
2021/08/19 00:10:31;;;;;;;1.53;0.90;;;22.90;57.50;;;;;;4992611;28;20249;-47
2021/08/19 00:12:58;;;;;;;2.20;1.30;;;22.90;57.40;;;;;;4991694;28;20696;-47
2021/08/19 00:15:24;;;;;;;1.23;1.10;;;23.00;57.30;;;;;;4992306;28;20473;-47
2021/08/19 00:17:49;;;;;;;1.53;1.00;;;23.00;57.40;;;;;;4991388;28;20516;-47
2021/08/19 00:20:15;;;;;;;1.13;1.13;;;23.00;57.30;;;;;;4990264;28;20209;-48
2021/08/19 00:22:41;;;;;;;1.10;1.10;;;23.10;57.20;;;;;;4991634;28;20191;-46
2021/08/19 00:25:07;;;;;;;2.10;1.00;;;23.10;57.20;;;;;;4992224;28;20194;-47
2021/08/19 00:27:33;;;;;;;1.63;1.03;;;23.00;57.40;;;;;;4991805;28;20198;-47
2021/08/19 00:29:58;;;;;;;0.90;0.90;;;22.90;57.60;;;;;;4985439;28;20733;-46
2021/08/19 00:32:24;;;;;;;0.90;0.90;;;22.80;57.50;;;;;;4991514;28;20249;-46
2021/08/19 00:34:50;;;;;;;1.27;1.17;;;22.80;57.80;;;;;;4992230;28;20598;-46
2021/08/19 00:37:16;;;;;;;2.57;1.03;;;22.90;57.50;;;;;;4991122;28;20686;-47
2021/08/19 00:39:44;;;;;;;1.57;1.20;;;23.00;57.30;;;;;;4991303;28;20597;-47
2021/08/19 00:42:10;;;;;;;1.43;1.07;;;23.10;57.10;;;;;;4991381;28;20501;-47
2021/08/19 00:44:39;;;;;;;0.80;0.80;;;23.10;57.00;;;;;;4992117;28;20508;-47
2021/08/19 00:47:08;;;;;;;1.37;1.27;;;23.10;57.00;;;;;;4989498;28;20190;-47
2021/08/19 00:49:36;;;;;;;0.90;0.90;;;23.10;57.00;;;;;;4991727;28;20430;-46
2021/08/19 00:52:02;;;;;;;1.00;1.00;;;23.10;56.90;;;;;;4989721;28;20898;-46
2021/08/19 00:54:28;;;;;;;1.23;1.13;;;23.20;56.90;;;;;;4972339;28;20449;-47
2021/08/19 00:56:55;;;;;;;1.27;1.23;;;23.20;56.80;;;;;;4971439;28;20924;-47
2021/08/19 00:59:23;;;;;;;2.60;1.00;;;23.20;56.80;;;;;;4972020;28;20422;-48
2021/08/19 01:01:53;;;;;;;1.70;0.90;;;23.20;56.90;;;;;;4971642;28;20949;-48
2021/08/19 01:04:18;;;;;;;0.80;0.80;;;23.20;56.90;;;;;;4972017;28;20794;-51
2021/08/19 01:06:44;;;;;;;1.40;1.30;;;23.30;57.00;;;;;;4970691;28;20461;-47
2021/08/19 01:09:10;;;;;;;0.93;0.93;;;23.30;57.10;;;;;;4972107;28;20195;-48
2021/08/19 01:11:39;;;;;;;1.13;1.03;;;23.20;57.00;;;;;;4933926;28;1081918;-48
2021/08/19 01:14:05;;;;;;;1.20;1.10;;;23.20;57.10;;;;;;4981767;28;20205;-47
2021/08/19 01:16:31;;;;;;;1.30;1.20;;;23.20;57.20;;;;;;4991385;28;20965;-48
2021/08/19 01:18:57;;;;;;;1.50;1.40;;;23.20;57.40;;;;;;4992233;28;20468;-49
2021/08/19 01:21:23;;;;;;;1.53;1.10;;;23.20;57.40;;;;;;4991531;28;20531;-47
2021/08/19 01:23:48;;;;;;;1.37;1.27;;;23.20;57.50;;;;;;4992020;28;20194;-47
2021/08/19 01:26:16;;;;;;;1.37;1.20;;;23.20;57.60;;;;;;4991945;28;20705;-48
2021/08/19 01:28:43;;;;;;;1.80;1.13;;;23.20;57.70;;;;;;4988643;28;20187;-48
2021/08/19 01:31:17;;;;;;;1.53;1.30;;;23.20;57.70;;;;;;4986904;28;20426;-48
2021/08/19 01:33:45;;;;;;;1.30;1.20;;;23.20;57.80;;;;;;4991599;28;20471;-51
2021/08/19 01:36:11;;;;;;;1.47;1.37;;;23.20;57.80;;;;;;4991752;28;20434;-47
2021/08/19 01:38:38;;;;;;;3.50;1.20;;;23.20;57.80;;;;;;4991361;28;20940;-51
2021/08/19 01:41:04;;;;;;;1.37;1.27;;;23.20;57.80;;;;;;4989766;28;20433;-47
2021/08/19 01:43:30;;;;;;;1.07;1.00;;;23.20;57.80;;;;;;4991584;28;20430;-46
2021/08/19 01:46:01;;;;;;;1.20;1.10;;;23.20;57.80;;;;;;4992215;28;20217;-48
2021/08/19 01:48:27;;;;;;;1.47;1.27;;;23.20;57.90;;;;;;4991482;28;20525;-47
2021/08/19 01:50:54;;;;;;;1.63;1.30;;;23.20;57.90;;;;;;4991470;28;20430;-50
2021/08/19 01:53:20;;;;;;;1.30;1.20;;;23.20;58.00;;;;;;4980181;28;20510;-47
2021/08/19 01:55:46;;;;;;;1.60;1.10;;;23.10;58.00;;;;;;4972391;28;20813;-47
2021/08/19 01:58:12;;;;;;;1.50;1.30;;;23.10;58.20;;;;;;4971784;28;20761;-47
2021/08/19 02:00:38;;;;;;;1.10;1.03;;;23.10;58.40;;;;;;4971978;28;20200;-47
2021/08/19 02:03:04;;;;;;;1.67;1.33;;;23.10;58.60;;;;;;4971552;28;20847;-47
2021/08/19 02:05:30;;;;;;;2.97;1.00;;;23.00;58.50;;;;;;4971380;28;20430;-51
2021/08/19 02:07:56;;;;;;;1.63;1.30;;;23.00;58.60;;;;;;4971405;28;20455;-47
2021/08/19 02:10:22;;;;;;;1.20;1.10;;;23.00;58.60;;;;;;4972040;28;20431;-48
2021/08/19 02:12:48;;;;;;;7.00;1.30;;;23.00;58.60;;;;;;4971903;28;20982;-47
2021/08/19 02:15:14;;;;;;;1.60;1.23;;;23.00;58.40;;;;;;4984526;28;20286;-46
2021/08/19 02:17:40;;;;;;;1.27;1.17;;;23.00;58.40;;;;;;4985911;28;20226;-46
2021/08/19 02:20:06;;;;;;;1.40;1.30;;;23.00;58.50;;;;;;4994958;28;20947;-47
2021/08/19 02:22:32;;;;;;;1.73;1.10;;;23.00;58.60;;;;;;4994226;28;20195;-47
2021/08/19 02:24:58;;;;;;;1.37;1.27;;;23.00;58.70;;;;;;4995248;28;20428;-46
2021/08/19 02:27:23;;;;;;;1.23;1.17;;;23.00;58.70;;;;;;4994380;28;20205;-47
2021/08/19 02:29:49;;;;;;;1.50;1.20;;;23.00;59.00;;;;;;4987695;28;20191;-48
2021/08/19 02:32:16;;;;;;;1.30;1.20;;;23.00;59.20;;;;;;4992569;28;20186;-47
2021/08/19 02:34:42;;;;;;;3.57;1.50;;;23.00;59.20;;;;;;4994982;28;20888;-46
2021/08/19 02:37:08;;;;;;;1.43;1.33;;;22.90;59.20;;;;;;4994310;28;20481;-47
2021/08/19 02:39:33;;;;;;;1.47;1.37;;;22.90;59.30;;;;;;4994423;28;20994;-46
2021/08/19 02:41:59;;;;;;;1.73;1.63;;;22.80;59.40;;;;;;4994451;28;20281;-47
2021/08/19 02:44:25;;;;;;;2.07;1.47;;;22.60;60.50;;;;;;4994661;28;20527;-47
2021/08/19 02:46:50;;;;;;;1.73;1.53;;;22.60;60.00;;;;;;4994132;28;20646;-46
2021/08/19 02:49:16;;;;;;;1.93;1.47;;;22.50;60.40;;;;;;4994212;28;20277;-46
2021/08/19 02:51:41;;;;;;;2.13;2.00;;;22.40;61.00;;;;;;4993922;28;20194;-46
2021/08/19 02:54:07;;;;;;;2.63;1.80;;;22.20;61.80;;;;;;4976328;28;20203;-47
2021/08/19 02:56:33;;;;;;;3.30;1.60;;;22.20;61.70;;;;;;4974305;28;20585;-47
2021/08/19 02:58:58;;;;;;;2.20;2.07;;;22.30;61.30;;;;;;4973361;28;20202;-47
2021/08/19 03:01:24;;;;;;;2.10;2.00;;;22.30;61.10;;;;;;4973608;28;20589;-47
2021/08/19 03:03:49;;;;;;;2.20;2.10;;;22.40;61.20;;;;;;4974652;28;20215;-47
2021/08/19 03:06:15;;;;;;;3.23;1.93;;;22.20;61.70;;;;;;4974869;28;20195;-51
2021/08/19 03:08:42;;;;;;;1.83;1.73;;;22.30;61.50;;;;;;4974154;28;20199;-51
2021/08/19 03:11:07;;;;;;;1.87;1.70;;;22.30;61.00;;;;;;4974256;28;20211;-50
2021/08/19 03:13:33;;;;;;;2.17;1.97;;;22.30;61.00;;;;;;4980246;28;20433;-52
2021/08/19 03:15:58;;;;;;;2.17;2.07;;;22.30;60.80;;;;;;4994128;28;20191;-51
2021/08/19 03:18:24;;;;;;;4.03;1.93;;;22.30;60.80;;;;;;4993302;28;20244;-51
2021/08/19 03:20:49;;;;;;;1.90;1.80;;;22.30;60.70;;;;;;4993846;28;20194;-47
2021/08/19 03:23:15;;;;;;;4.00;2.00;;;22.40;60.50;;;;;;4993340;28;20199;-49
2021/08/19 03:25:41;;;;;;;2.23;1.87;;;22.30;60.60;;;;;;4992802;28;20278;-50
2021/08/19 03:28:08;;;;;;;1.70;1.60;;;22.40;60.50;;;;;;4992499;28;20194;-51
2021/08/19 03:30:34;;;;;;;2.00;1.90;;;22.30;60.50;;;;;;4986347;28;20233;-47
2021/08/19 03:33:04;;;;;;;1.60;1.50;;;22.40;60.40;;;;;;4993043;28;20909;-49
2021/08/19 03:35:30;;;;;;;1.83;1.73;;;22.50;60.20;;;;;;4993620;28;20198;-50
2021/08/19 03:37:55;;;;;;;1.33;1.23;;;22.50;60.00;;;;;;4992928;28;20908;-46
2021/08/19 03:40:21;;;;;;;2.07;1.97;;;22.40;60.10;;;;;;4993333;28;20582;-48
2021/08/19 03:42:47;;;;;;;1.57;1.47;;;22.50;60.00;;;;;;4993026;28;20190;-47
2021/08/19 03:45:14;;;;;;;2.67;1.70;;;22.50;60.00;;;;;;4993555;28;20615;-48
2021/08/19 03:47:41;;;;;;;1.77;1.60;;;22.50;60.10;;;;;;4992901;28;20198;-49
2021/08/19 03:50:09;;;;;;;2.00;1.87;;;22.40;59.80;;;;;;4993370;28;20422;-47
2021/08/19 03:52:35;;;;;;;1.97;1.87;;;22.40;60.00;;;;;;4985950;28;20434;-50
2021/08/19 03:55:01;;;;;;;2.23;2.10;;;22.40;60.00;;;;;;4973950;28;20981;-47
2021/08/19 03:57:27;;;;;;;1.97;1.77;;;22.30;60.10;;;;;;4973271;28;20557;-52
2021/08/19 03:59:52;;;;;;;1.70;1.60;;;22.30;60.20;;;;;;4973630;28;20571;-51
2021/08/19 04:02:18;;;;;;;1.97;1.87;;;22.10;61.60;;;;;;4973491;28;20187;-47
2021/08/19 04:04:43;;;;;;;2.60;2.20;;;21.80;61.70;;;;;;4973584;28;20270;-47
2021/08/19 04:07:09;;;;;;;2.70;1.83;;;21.90;62.00;;;;;;4973222;28;20195;-51
2021/08/19 04:09:34;;;;;;;1.60;1.50;;;21.80;62.00;;;;;;4973594;28;20226;-51
2021/08/19 04:12:01;;;;;;;2.53;1.60;;;21.90;62.00;;;;;;4973103;28;20322;-48
2021/08/19 04:14:26;;;;;;;2.30;1.67;;;21.90;61.80;;;;;;4987185;28;20198;-47
2021/08/19 04:16:52;;;;;;;2.17;2.07;;;21.90;61.60;;;;;;4992127;28;20486;-52
2021/08/19 04:19:18;;;;;;;5.40;2.47;;;21.90;61.80;;;;;;4991169;28;20643;-51
2021/08/19 04:21:44;;;;;;;1.97;1.83;;;21.90;62.00;;;;;;4992280;28;20662;-52
2021/08/19 04:24:09;;;;;;;1.90;1.80;;;21.90;62.10;;;;;;4993109;28;20191;-47
2021/08/19 04:26:35;;;;;;;2.23;2.03;;;21.80;62.70;;;;;;4992039;28;20437;-51
2021/08/19 04:29:01;;;;;;;2.23;2.10;;;21.70;63.10;;;;;;4986702;28;20223;-50
2021/08/19 04:31:26;;;;;;;1.60;1.50;;;21.80;62.90;;;;;;4990888;28;20321;-52
2021/08/19 04:33:52;;;;;;;5.03;2.20;;;21.90;62.20;;;;;;4992481;28;20191;-49
2021/08/19 04:36:17;;;;;;;2.03;1.80;;;22.00;61.80;;;;;;4992692;28;20273;-47
2021/08/19 04:38:43;;;;;;;4.23;2.27;;;21.90;61.90;;;;;;4992135;28;20205;-51
2021/08/19 04:41:08;;;;;;;1.90;1.70;;;21.90;62.10;;;;;;4991869;28;20191;-51
2021/08/19 04:43:34;;;;;;;1.90;1.80;;;21.60;63.20;;;;;;4991930;28;20198;-51
2021/08/19 04:46:00;;;;;;;2.77;2.07;;;21.60;63.10;;;;;;4990944;28;20223;-50
2021/08/19 04:48:25;;;;;;;2.47;2.27;;;21.40;63.60;;;;;;4991904;28;20555;-48
2021/08/19 04:50:51;;;;;;;2.43;2.20;;;21.40;63.60;;;;;;4991728;28;20190;-51
2021/08/19 04:53:17;;;;;;;2.90;2.50;;;21.50;63.70;;;;;;4981262;28;20202;-46
2021/08/19 04:55:42;;;;;;;3.27;2.10;;;21.40;64.00;;;;;;4971850;28;20231;-46
2021/08/19 04:58:08;;;;;;;2.47;2.20;;;21.30;64.40;;;;;;4972311;28;20482;-47
2021/08/19 05:00:34;;;;;;;2.13;2.03;;;21.50;64.20;;;;;;4972780;28;20200;-48
2021/08/19 05:02:59;;;;;;;2.00;1.87;;;21.50;64.10;;;;;;4972568;28;20191;-48
2021/08/19 05:05:25;;;;;;;1.87;1.70;;;21.50;63.90;;;;;;4973008;28;20891;-47
2021/08/19 05:07:51;;;;;;;2.83;2.30;;;21.70;63.50;;;;;;4972532;28;20246;-47
2021/08/19 05:10:16;;;;;;;2.50;2.30;;;21.80;63.10;;;;;;4972490;28;20280;-48
2021/08/19 05:12:42;;;;;;;2.60;2.10;;;21.90;62.70;;;;;;4970678;28;20258;-50
2021/08/19 05:15:09;;;;;;;2.30;2.20;;;21.90;62.30;;;;;;4991878;28;20205;-52
2021/08/19 05:17:34;;;;;;;2.60;2.17;;;21.90;62.30;;;;;;4991654;28;20547;-50
2021/08/19 05:20:00;;;;;;;2.10;2.00;;;21.90;62.50;;;;;;4991823;28;20429;-51
2021/08/19 05:22:25;;;;;;;2.13;1.90;;;21.90;62.00;;;;;;4991621;28;20202;-52
2021/08/19 05:24:51;;;;;;;1.63;1.47;;;21.90;62.00;;;;;;4992424;28;20209;-52
2021/08/19 05:27:17;;;;;;;2.00;1.90;;;22.00;61.90;;;;;;4991497;28;20233;-51
2021/08/19 05:29:43;;;;;;;2.20;1.90;;;22.10;61.50;;;;;;4984995;28;20618;-51
2021/08/19 05:32:08;;;;;;;1.83;1.57;;;22.10;62.00;;;;;;4991833;28;20709;-51
2021/08/19 05:34:34;;;;;;;1.80;1.70;;;22.20;61.10;;;;;;4992326;28;20191;-52
2021/08/19 05:36:59;;;;;;;2.20;1.90;;;22.30;61.00;;;;;;4991144;28;20237;-51
2021/08/19 05:39:25;;;;;;;2.50;1.70;;;22.30;60.90;;;;;;4990034;28;20249;-50
2021/08/19 05:41:50;;;;;;;2.30;2.10;;;22.40;60.90;;;;;;4991545;28;20194;-52
2021/08/19 05:44:16;;;;;;;2.13;1.73;;;22.40;60.80;;;;;;4991861;28;20199;-51
2021/08/19 05:46:42;;;;;;;1.90;1.80;;;22.50;60.80;;;;;;4991330;28;20218;-51
2021/08/19 05:49:08;;;;;;;2.23;2.03;;;22.50;61.60;;;;;;4991268;28;20198;-46
2021/08/19 05:51:34;;;;;;;2.00;1.90;;;22.50;60.80;;;;;;4991932;28;20187;-47
2021/08/19 05:54:00;;;;;;;2.40;2.10;;;22.50;60.70;;;;;;4978519;28;20521;-47
2021/08/19 05:56:25;;;;;;;1.67;1.57;;;22.60;60.60;;;;;;4975691;28;20518;-48
2021/08/19 05:58:51;;;;;;;2.33;1.93;;;22.60;60.50;;;;;;4975136;28;20195;-48
2021/08/19 06:01:17;;;;;;;2.30;2.10;;;22.70;60.40;;;;;;4976043;28;20199;-48
2021/08/19 06:03:42;;;;;;;1.97;1.73;;;22.70;60.70;;;;;;4974748;28;20647;-51
2021/08/19 06:06:10;;;;;;;2.00;1.90;;;22.70;61.00;;;;;;4975242;28;20202;-48
2021/08/19 06:08:36;;;;;;;4.90;2.00;;;22.70;61.40;;;;;;4975212;28;20195;-47
2021/08/19 06:11:03;;;;;;;1.83;1.73;;;22.70;62.00;;;;;;4975601;28;20478;-48
2021/08/19 06:13:29;;;;;;;4.40;2.27;;;22.70;62.10;;;;;;4980985;28;20334;-48
2021/08/19 06:15:55;;;;;;;2.07;1.87;;;22.80;62.30;;;;;;4995312;28;20521;-47
2021/08/19 06:18:20;;;;;;;1.90;1.80;;;22.80;62.30;;;;;;4994585;28;20222;-47
2021/08/19 06:20:46;;;;;;;4.30;2.20;;;22.90;62.20;;;;;;4994938;28;20221;-47
2021/08/19 06:23:12;;;;;;;1.60;1.50;;;22.90;62.10;;;;;;4994580;28;20199;-47
2021/08/19 06:25:39;;;;;;;2.27;2.07;;;22.90;62.20;;;;;;4995285;28;20195;-49
2021/08/19 06:28:06;;;;;;;2.07;1.90;;;22.90;62.00;;;;;;4994249;28;20430;-48
2021/08/19 06:30:34;;;;;;;2.40;2.23;;;22.90;61.40;;;;;;4985708;28;20418;-47
2021/08/19 06:33:00;;;;;;;5.50;2.37;;;23.00;61.00;;;;;;4994357;28;20520;-48
2021/08/19 06:35:26;;;;;;;2.17;1.97;;;22.90;59.60;;;;;;4994894;28;20414;-48
2021/08/19 06:37:52;;;;;;;3.10;2.10;;;23.00;59.90;;;;;;4994239;28;20518;-50
2021/08/19 06:40:18;;;;;;;2.07;1.87;;;23.00;59.90;;;;;;4994652;28;20898;-48
2021/08/19 06:42:43;;;;;;;2.90;2.23;;;23.00;59.50;;;;;;4994153;28;20199;-47
2021/08/19 06:45:10;;;;;;;2.33;2.00;;;23.10;59.30;;;;;;4995168;28;20213;-48
2021/08/19 06:47:36;;;;;;;3.13;2.13;;;23.10;59.20;;;;;;4994058;28;20194;-47
2021/08/19 06:50:02;;;;;;;2.40;2.30;;;23.20;59.10;;;;;;4994216;28;20424;-50
2021/08/19 06:52:27;;;;;;;2.10;1.90;;;23.20;58.90;;;;;;4990092;28;20199;-49
2021/08/19 06:54:53;;;;;;;2.57;2.37;;;23.30;58.60;;;;;;4975340;28;20474;-48
2021/08/19 06:57:19;;;;;;;2.40;1.90;;;23.30;58.10;;;;;;4972641;28;20738;-48
2021/08/19 06:59:44;;;;;;;3.97;2.10;;;23.40;58.00;;;;;;4974632;28;20286;-48
2021/08/19 07:02:10;;;;;;;3.00;2.40;;;23.50;58.00;;;;;;4974261;28;20256;-48
2021/08/19 07:04:35;;;;;;;2.73;2.30;;;23.40;58.50;;;;;;4975091;28;20267;-47
2021/08/19 07:07:01;;;;;;;2.20;2.00;;;23.40;58.60;;;;;;4973984;28;20199;-49
2021/08/19 07:09:27;;;;;;;1.80;1.70;;;23.30;58.70;;;;;;4974214;28;20234;-47
2021/08/19 07:11:54;;;;;;;2.30;2.20;;;23.00;59.80;;;;;;4973999;28;20246;-49
2021/08/19 07:14:19;;;;;;;3.30;2.20;;;23.20;59.70;;;;;;4987539;28;20198;-48
2021/08/19 07:16:45;;;;;;;2.40;2.20;;;23.30;59.00;;;;;;4993332;28;21055;-50
2021/08/19 07:19:11;;;;;;;2.53;2.33;;;23.50;58.60;;;;;;4993834;28;20658;-47
2021/08/19 07:21:37;;;;;;;2.20;2.10;;;23.60;58.20;;;;;;4993412;28;20198;-47
2021/08/19 07:24:03;;;;;;;2.43;2.20;;;23.80;57.60;;;;;;4992459;28;20205;-48
2021/08/19 07:26:28;;;;;;;5.00;2.23;;;23.80;57.20;;;;;;4993447;28;20194;-47
2021/08/19 07:28:54;;;;;;;2.37;2.10;;;23.80;56.80;;;;;;4993344;28;20551;-48
2021/08/19 07:31:20;;;;;;;2.70;2.20;;;23.80;56.80;;;;;;4976333;28;20199;-47
2021/08/19 07:33:46;;;;;;;3.93;2.00;;;23.90;56.90;;;;;;4973858;28;20578;-51
2021/08/19 07:36:11;;;;;;;1.93;1.83;;;24.00;56.80;;;;;;4974294;28;20438;-47
2021/08/19 07:38:37;;;;;;;2.67;2.47;;;24.10;56.50;;;;;;4973431;28;20231;-48
2021/08/19 07:41:03;;;;;;;5.20;2.60;;;24.00;56.10;;;;;;4973871;28;20195;-47
2021/08/19 07:43:28;;;;;;;3.00;2.70;;;24.10;56.20;;;;;;4973743;28;20199;-47
2021/08/19 07:45:57;;;;;;;2.90;2.43;;;24.10;55.90;;;;;;4974161;28;20290;-47
2021/08/19 07:48:22;;;;;;;1.90;1.80;;;24.20;55.60;;;;;;4973459;28;20195;-51
2021/08/19 07:50:48;;;;;;;2.27;2.07;;;24.30;56.00;;;;;;4973823;28;20815;-47
2021/08/19 07:53:14;;;;;;;2.60;2.40;;;24.20;56.20;;;;;;4982291;28;20199;-47
2021/08/19 07:55:39;;;;;;;2.53;2.20;;;24.30;55.80;;;;;;4973991;28;20191;-48
2021/08/19 07:58:05;;;;;;;3.90;2.47;;;24.30;55.30;;;;;;4973226;28;20254;-47
2021/08/19 08:00:33;;;;;;;2.53;2.33;;;24.30;55.40;;;;;;4973542;28;20244;-47
2021/08/19 08:03:00;;;;;;;2.10;2.00;;;24.50;55.40;;;;;;4973334;28;20242;-47
2021/08/19 08:05:27;;;;;;;2.73;2.03;;;24.50;55.00;;;;;;4973823;28;20964;-47
2021/08/19 08:07:53;;;;;;;2.70;2.50;;;24.60;54.90;;;;;;4973444;28;20439;-48
2021/08/19 08:10:20;;;;;;;5.63;2.50;;;24.70;54.90;;;;;;4973111;28;20467;-47
2021/08/19 08:12:45;;;;;;;2.83;2.30;;;24.70;54.40;;;;;;4973005;28;20261;-47
2021/08/19 08:15:12;;;;;;;2.60;2.40;;;24.80;54.50;;;;;;4991129;28;20452;-47
2021/08/19 08:17:38;;;;;;;2.30;2.10;;;24.90;54.30;;;;;;4990630;28;20222;-47
2021/08/19 08:20:08;;;;;;;2.70;2.10;;;25.00;54.80;;;;;;4992452;28;20430;-48
2021/08/19 08:22:34;;;;;;;2.13;2.03;;;25.00;53.70;;;;;;4992320;28;20826;-47
2021/08/19 08:24:59;;;;;;;2.40;2.20;;;25.00;53.60;;;;;;4992747;28;20442;-48
2021/08/19 08:27:25;;;;;;;2.10;2.00;;;25.00;53.90;;;;;;4992199;28;20437;-50
2021/08/19 08:29:53;;;;;;;2.43;1.90;;;25.10;53.70;;;;;;4991214;28;20194;-48
2021/08/19 08:32:18;;;;;;;2.40;2.20;;;25.20;53.80;;;;;;4992480;28;20201;-48
2021/08/19 08:34:44;;;;;;;3.70;2.10;;;25.30;53.80;;;;;;4992645;28;20509;-47
2021/08/19 08:37:10;;;;;;;2.23;2.03;;;25.40;54.10;;;;;;4992242;28;20258;-47
2021/08/19 08:39:37;;;;;;;3.20;2.17;;;25.60;52.90;;;;;;4992362;28;20648;-48
2021/08/19 08:42:06;;;;;;;4.13;2.30;;;25.50;52.40;;;;;;4992124;28;20436;-47
2021/08/19 08:44:33;;;;;;;3.10;2.53;;;25.50;52.70;;;;;;4989799;28;20963;-48
2021/08/19 08:46:59;;;;;;;2.40;2.20;;;25.60;52.70;;;;;;4991944;28;20874;-48
2021/08/19 08:49:26;;;;;;;1.97;1.87;;;25.50;52.40;;;;;;4991807;28;20438;-48
2021/08/19 08:51:57;;;;;;;2.00;1.90;;;25.60;52.80;;;;;;4991783;28;20928;-48
2021/08/19 08:54:24;;;;;;;2.90;1.93;;;25.80;52.80;;;;;;4973209;28;20855;-48
2021/08/19 08:56:50;;;;;;;2.33;2.13;;;25.90;52.60;;;;;;4972341;28;20893;-47
2021/08/19 08:59:16;;;;;;;2.03;1.93;;;26.00;52.20;;;;;;4972797;28;20506;-47
2021/08/19 09:01:42;;;;;;;2.33;2.00;;;26.00;52.70;;;;;;4971970;28;20203;-48
2021/08/19 09:04:07;;;;;;;2.87;1.83;;;26.00;52.80;;;;;;4973005;28;21668;-47
2021/08/19 09:06:41;;;;;;;2.10;2.00;;;26.10;53.50;;;;;;4972346;28;20191;-48
2021/08/19 09:09:19;;;;;;;2.50;2.30;;;26.10;52.10;;;;;;4970855;28;20203;-49
2021/08/19 09:11:55;;;;;;;2.33;2.13;;;26.20;51.50;;;;;;4972161;28;20474;-47
2021/08/19 09:14:24;;;;;;;3.00;2.70;;;26.20;50.80;;;;;;4985886;28;21019;-47
2021/08/19 09:16:51;;;;;;;2.33;2.13;;;26.40;51.00;;;;;;4991492;28;20844;-48
2021/08/19 09:19:19;;;;;;;2.50;2.30;;;26.40;50.60;;;;;;4991749;28;20445;-48
2021/08/19 09:21:48;;;;;;;1.70;1.60;;;26.50;50.80;;;;;;4991572;28;20849;-47
2021/08/19 09:24:26;;;;;;;2.70;2.17;;;26.50;50.90;;;;;;4992072;28;20457;-48
2021/08/19 09:26:54;;;;;;;2.20;2.00;;;26.40;50.60;;;;;;4992450;28;20925;-50
2021/08/19 09:29:30;;;;;;;2.70;1.83;;;26.50;51.30;;;;;;4988576;28;20771;-49
2021/08/19 09:32:12;;;;;;;2.00;1.90;;;26.60;51.00;;;;;;4995755;28;20444;-51
2021/08/19 09:34:40;;;;;;;2.20;2.10;;;26.70;50.50;;;;;;4995991;28;20444;-52
2021/08/19 09:37:10;;;;;;;2.50;2.30;;;26.80;50.80;;;;;;4993687;28;20473;-48
2021/08/19 09:39:42;;;;;;;1.90;1.63;;;26.80;50.30;;;;;;4995564;28;20437;-52
2021/08/19 09:42:08;;;;;;;1.70;1.60;;;26.90;49.70;;;;;;4995236;28;20910;-48
2021/08/19 09:44:43;;;;;;;1.90;1.80;;;26.80;48.90;;;;;;4995627;28;20450;-52
2021/08/19 09:47:29;;;;;;;2.80;1.80;;;26.80;49.40;;;;;;4995294;28;20473;-49
2021/08/19 09:50:12;;;;;;;1.90;1.40;;;26.70;48.80;;;;;;4995398;28;20425;-51
2021/08/19 09:52:39;;;;;;;2.10;1.90;;;26.70;48.20;;;;;;4989165;28;20446;-47
2021/08/19 09:55:28;;;;;;;2.73;1.53;;;26.70;48.20;;;;;;4976026;28;20518;-52
2021/08/19 09:57:55;;;;;;;1.90;1.80;;;26.50;48.60;;;;;;4975453;28;20490;-48
2021/08/19 10:00:32;;;;;;;3.83;1.93;;;26.60;48.70;;;;;;4975786;28;20434;-52
2021/08/19 10:02:59;;;;;;;1.60;1.50;;;26.70;48.60;;;;;;4973884;28;20985;-50
2021/08/19 10:05:25;;;;;;;2.00;1.90;;;26.80;47.80;;;;;;4975713;28;20506;-48
2021/08/19 10:07:51;;;;;;;1.33;1.23;;;26.90;47.20;;;;;;4975752;28;20433;-49
2021/08/19 10:10:17;;;;;;;1.87;1.40;;;27.00;46.90;;;;;;4974507;28;20426;-48
2021/08/19 10:12:45;;;;;;;2.00;1.60;;;27.10;47.10;;;;;;4975183;28;20816;-48
2021/08/19 10:15:13;;;;;;;1.53;1.43;;;27.10;47.00;;;;;;4993552;28;20450;-53
2021/08/19 10:17:52;;;;;;;1.60;1.50;;;27.20;46.20;;;;;;4994627;28;20500;-52
2021/08/19 10:20:47;;;;;;;1.23;1.13;;;27.00;45.60;;;;;;4995133;28;20476;-52
2021/08/19 10:23:14;;;;;;;1.93;1.37;;;27.00;46.50;;;;;;4993370;28;20500;-48
2021/08/19 10:25:40;;;;;;;1.90;1.67;;;26.90;46.60;;;;;;4995306;28;20418;-48
2021/08/19 10:28:19;;;;;;;1.33;1.23;;;26.90;46.40;;;;;;4994499;28;20463;-51
2021/08/19 10:30:46;;;;;;;1.60;1.27;;;27.00;46.10;;;;;;4974567;28;20530;-50
2021/08/19 10:33:37;;;;;;;1.20;1.10;;;26.90;45.70;;;;;;4974936;28;20466;-48
2021/08/19 10:36:12;;;;;;;1.60;1.50;;;26.80;44.80;;;;;;4975300;28;20435;-49
2021/08/19 10:38:42;;;;;;;1.60;1.50;;;26.80;45.50;;;;;;4973969;28;20898;-48
2021/08/19 10:41:39;;;;;;;1.40;1.30;;;26.80;45.40;;;;;;4975372;28;20427;-52
2021/08/19 10:44:12;;;;;;;2.40;1.40;;;26.80;45.70;;;;;;4975105;28;20426;-47
2021/08/19 10:46:38;;;;;;;1.40;1.30;;;27.10;45.30;;;;;;4974616;28;20930;-48
2021/08/19 10:49:04;;;;;;;1.60;1.50;;;27.20;44.60;;;;;;4974698;28;20518;-52
2021/08/19 10:51:30;;;;;;;1.43;1.33;;;27.30;44.70;;;;;;4980489;28;20485;-50
2021/08/19 10:53:56;;;;;;;1.27;1.17;;;27.40;44.50;;;;;;4977034;28;20485;-49
2021/08/19 10:56:44;;;;;;;2.70;1.50;;;27.50;44.50;;;;;;4973567;28;20855;-49
2021/08/19 10:59:32;;;;;;;1.50;1.40;;;27.70;45.40;;;;;;4974843;28;20295;-49
2021/08/19 11:01:59;;;;;;;1.37;1.27;;;27.70;45.00;;;;;;4974245;28;20450;-49
2021/08/19 11:04:42;;;;;;;1.53;1.43;;;27.70;44.80;;;;;;4975072;28;20434;-48
2021/08/19 11:07:09;;;;;;;1.83;1.53;;;27.80;45.00;;;;;;4974217;28;20443;-47
2021/08/19 11:09:35;;;;;;;2.30;1.50;;;27.80;44.90;;;;;;4974504;28;20443;-47
2021/08/19 11:12:07;;;;;;;1.83;1.53;;;27.80;44.80;;;;;;4974140;28;20514;-48
2021/08/19 11:14:33;;;;;;;4.53;3.03;;;27.90;45.00;;;;;;4988849;28;20845;-48
2021/08/19 11:17:01;;;;;;;8.37;5.70;;;27.90;45.30;;;;;;4993565;28;20477;-49
2021/08/19 11:19:29;;;;;;;3.83;3.47;;;27.90;45.50;;;;;;4993629;28;20273;-49
2021/08/19 11:21:57;;;;;;;4.93;3.70;;;27.90;45.90;;;;;;4992026;28;20458;-48
2021/08/19 11:24:25;;;;;;;6.37;3.30;;;27.80;45.80;;;;;;4992667;28;20445;-49
2021/08/19 11:27:10;;;;;;;3.90;3.13;;;27.90;45.60;;;;;;4993486;28;20426;-50
2021/08/19 11:29:43;;;;;;;4.23;2.10;;;27.90;45.90;;;;;;4986665;28;20458;-52
2021/08/19 11:32:12;;;;;;;1.70;1.60;;;27.90;45.60;;;;;;4993624;28;20491;-52
2021/08/19 11:34:44;;;;;;;1.40;1.30;;;27.90;45.10;;;;;;4994009;28;20822;-53
2021/08/19 11:37:10;;;;;;;1.60;1.50;;;27.90;44.90;;;;;;4992849;28;20473;-51
2021/08/19 11:39:36;;;;;;;3.93;2.00;;;27.90;45.60;;;;;;4993481;28;20503;-50
2021/08/19 11:42:05;;;;;;;1.67;1.57;;;28.00;44.70;;;;;;4993214;28;20186;-52
2021/08/19 11:44:32;;;;;;;2.93;1.77;;;27.90;44.80;;;;;;4987665;28;20199;-48
2021/08/19 11:47:12;;;;;;;1.60;1.47;;;27.90;44.70;;;;;;4973713;28;20439;-48
2021/08/19 11:49:39;;;;;;;2.90;2.37;;;27.80;44.60;;;;;;4971464;28;20450;-47
2021/08/19 11:52:07;;;;;;;1.70;1.60;;;27.70;44.50;;;;;;4983336;28;20445;-48
2021/08/19 11:54:46;;;;;;;4.37;1.53;;;27.70;45.00;;;;;;4973669;28;20945;-48
2021/08/19 11:57:25;;;;;;;1.47;1.37;;;27.80;45.80;;;;;;4973341;28;20981;-48
2021/08/19 12:00:15;;;;;;;2.20;1.60;;;27.80;46.60;;;;;;4973606;28;20453;-48
2021/08/19 12:02:40;;;;;;;1.93;1.83;;;27.90;47.00;;;;;;4972080;28;20449;-48
2021/08/19 12:05:09;;;;;;;1.93;1.80;;;27.80;46.00;;;;;;4973865;28;20431;-47
2021/08/19 12:07:37;;;;;;;1.83;1.73;;;27.80;45.60;;;;;;4973784;28;20603;-47
2021/08/19 12:10:04;;;;;;;1.63;1.53;;;27.80;45.20;;;;;;4973284;28;20489;-48
2021/08/19 12:12:35;;;;;;;1.53;1.43;;;27.80;45.00;;;;;;4972787;28;21008;-48
2021/08/19 12:15:08;;;;;;;1.90;1.63;;;27.80;45.00;;;;;;4990006;28;20437;-47
2021/08/19 12:17:34;;;;;;;2.20;1.50;;;27.90;46.20;;;;;;4992429;28;20501;-47
2021/08/19 12:20:19;;;;;;;3.73;1.80;;;27.90;46.20;;;;;;4992579;28;20851;-49
2021/08/19 12:22:45;;;;;;;2.50;1.60;;;27.90;45.50;;;;;;4992095;28;20437;-47
2021/08/19 12:25:16;;;;;;;1.60;1.50;;;27.90;45.50;;;;;;4993026;28;20429;-47
2021/08/19 12:27:42;;;;;;;3.10;1.80;;;27.90;46.40;;;;;;4992488;28;20434;-47
2021/08/19 12:30:09;;;;;;;1.40;1.30;;;27.90;46.60;;;;;;4985732;28;20512;-49
2021/08/19 12:32:37;;;;;;;1.70;1.50;;;27.90;46.40;;;;;;4992294;28;20194;-48
2021/08/19 12:35:21;;;;;;;1.50;1.40;;;27.90;45.50;;;;;;4992552;28;20434;-47
2021/08/19 12:37:55;;;;;;;1.47;1.37;;;27.90;45.00;;;;;;4992194;28;20516;-47
2021/08/19 12:40:27;;;;;;;1.67;1.57;;;28.00;45.20;;;;;;4992755;28;20426;-47
2021/08/19 12:43:04;;;;;;;1.80;1.70;;;28.10;45.00;;;;;;4990206;28;20542;-48
2021/08/19 12:45:29;;;;;;;6.60;1.87;;;28.10;45.00;;;;;;4992602;28;20440;-47
2021/08/19 12:48:03;;;;;;;1.37;1.27;;;28.10;44.60;;;;;;4991935;28;20781;-48
2021/08/19 12:50:30;;;;;;;1.60;1.50;;;28.20;44.70;;;;;;4992224;28;20209;-48